sensor_id;sensor_type;location;lat;lon;timestamp;P1;durP1;ratioP1;P2;durP2;ratioP2
37791;SDS011;29527;55.766;37.570;2023-03-01T00:01:55;1.17;;;0.30;;
37791;SDS011;29527;55.766;37.570;2023-03-01T00:04:20;3.25;;;0.50;;
37791;SDS011;29527;55.766;37.570;2023-03-01T00:06:46;2.30;;;0.40;;
37791;SDS011;29527;55.766;37.570;2023-03-01T00:09:13;2.97;;;0.55;;
37791;SDS011;29527;55.766;37.570;2023-03-01T00:11:38;1.38;;;0.40;;
37791;SDS011;29527;55.766;37.570;2023-03-01T00:14:04;1.23;;;0.32;;
37791;SDS011;29527;55.766;37.570;2023-03-01T00:16:34;3.97;;;0.50;;
37791;SDS011;29527;55.766;37.570;2023-03-01T00:19:04;0.88;;;0.45;;
37791;SDS011;29527;55.766;37.570;2023-03-01T00:21:31;1.70;;;0.40;;
37791;SDS011;29527;55.766;37.570;2023-03-01T00:23:56;2.33;;;0.40;;
37791;SDS011;29527;55.766;37.570;2023-03-01T00:26:23;0.80;;;0.30;;
37791;SDS011;29527;55.766;37.570;2023-03-01T00:28:50;3.40;;;0.45;;
37791;SDS011;29527;55.766;37.570;2023-03-01T00:31:17;4.45;;;0.55;;
37791;SDS011;29527;55.766;37.570;2023-03-01T00:33:46;3.55;;;0.38;;
37791;SDS011;29527;55.766;37.570;2023-03-01T00:36:13;2.50;;;0.50;;
37791;SDS011;29527;55.766;37.570;2023-03-01T00:38:41;2.67;;;0.60;;
37791;SDS011;29527;55.766;37.570;2023-03-01T00:41:09;4.03;;;0.55;;
37791;SDS011;29527;55.766;37.570;2023-03-01T00:43:37;1.80;;;0.63;;
37791;SDS011;29527;55.766;37.570;2023-03-01T00:46:03;6.07;;;1.33;;
37791;SDS011;29527;55.766;37.570;2023-03-01T00:48:30;4.20;;;0.70;;
37791;SDS011;29527;55.766;37.570;2023-03-01T00:50:55;4.50;;;1.00;;
37791;SDS011;29527;55.766;37.570;2023-03-01T00:53:21;5.53;;;1.05;;
37791;SDS011;29527;55.766;37.570;2023-03-01T00:55:46;2.03;;;0.80;;
37791;SDS011;29527;55.766;37.570;2023-03-01T00:58:11;7.47;;;0.93;;
37791;SDS011;29527;55.766;37.570;2023-03-01T01:00:37;4.32;;;0.80;;
37791;SDS011;29527;55.766;37.570;2023-03-01T01:03:02;3.70;;;1.33;;
37791;SDS011;29527;55.766;37.570;2023-03-01T01:05:28;2.65;;;0.93;;
37791;SDS011;29527;55.766;37.570;2023-03-01T01:07:53;3.78;;;0.80;;
37791;SDS011;29527;55.766;37.570;2023-03-01T01:10:18;2.95;;;0.77;;
37791;SDS011;29527;55.766;37.570;2023-03-01T01:12:44;2.97;;;0.45;;
37791;SDS011;29527;55.766;37.570;2023-03-01T01:15:10;3.05;;;0.70;;
37791;SDS011;29527;55.766;37.570;2023-03-01T01:17:39;6.13;;;0.90;;
37791;SDS011;29527;55.766;37.570;2023-03-01T01:20:05;1.38;;;0.60;;
37791;SDS011;29527;55.766;37.570;2023-03-01T01:22:31;1.95;;;0.50;;
37791;SDS011;29527;55.766;37.570;2023-03-01T01:24:56;1.65;;;0.50;;
37791;SDS011;29527;55.766;37.570;2023-03-01T01:27:22;2.58;;;0.68;;
37791;SDS011;29527;55.766;37.570;2023-03-01T01:29:47;1.65;;;0.40;;
37791;SDS011;29527;55.766;37.570;2023-03-01T01:32:13;2.58;;;0.30;;
37791;SDS011;29527;55.766;37.570;2023-03-01T01:34:38;1.60;;;0.43;;
37791;SDS011;29527;55.766;37.570;2023-03-01T01:37:04;3.83;;;0.70;;
37791;SDS011;29527;55.766;37.570;2023-03-01T01:39:33;1.77;;;0.30;;
37791;SDS011;29527;55.766;37.570;2023-03-01T01:42:00;5.72;;;0.52;;
37791;SDS011;29527;55.766;37.570;2023-03-01T01:44:27;1.05;;;0.28;;
37791;SDS011;29527;55.766;37.570;2023-03-01T01:47:06;1.25;;;0.30;;
37791;SDS011;29527;55.766;37.570;2023-03-01T01:49:39;1.67;;;0.30;;
37791;SDS011;29527;55.766;37.570;2023-03-01T01:52:22;1.45;;;0.40;;
37791;SDS011;29527;55.766;37.570;2023-03-01T01:54:54;3.38;;;0.50;;
37791;SDS011;29527;55.766;37.570;2023-03-01T01:57:47;2.95;;;0.50;;
37791;SDS011;29527;55.766;37.570;2023-03-01T02:00:13;0.93;;;0.30;;
37791;SDS011;29527;55.766;37.570;2023-03-01T02:02:45;1.77;;;0.43;;
37791;SDS011;29527;55.766;37.570;2023-03-01T02:07:51;4.65;;;0.73;;
37791;SDS011;29527;55.766;37.570;2023-03-01T02:10:18;1.05;;;0.40;;
37791;SDS011;29527;55.766;37.570;2023-03-01T02:12:44;2.65;;;0.40;;
37791;SDS011;29527;55.766;37.570;2023-03-01T02:15:34;0.98;;;0.30;;
37791;SDS011;29527;55.766;37.570;2023-03-01T02:18:01;3.03;;;0.30;;
37791;SDS011;29527;55.766;37.570;2023-03-01T02:22:54;2.35;;;0.40;;
37791;SDS011;29527;55.766;37.570;2023-03-01T02:25:27;3.63;;;0.40;;
37791;SDS011;29527;55.766;37.570;2023-03-01T02:30:47;2.03;;;0.50;;
37791;SDS011;29527;55.766;37.570;2023-03-01T02:33:33;2.65;;;0.50;;
37791;SDS011;29527;55.766;37.570;2023-03-01T02:36:03;2.47;;;0.40;;
37791;SDS011;29527;55.766;37.570;2023-03-01T02:38:32;2.22;;;0.52;;
37791;SDS011;29527;55.766;37.570;2023-03-01T02:40:58;2.22;;;0.32;;
37791;SDS011;29527;55.766;37.570;2023-03-01T02:43:27;1.95;;;0.30;;
37791;SDS011;29527;55.766;37.570;2023-03-01T02:45:57;1.23;;;0.30;;
37791;SDS011;29527;55.766;37.570;2023-03-01T02:48:38;3.22;;;0.38;;
37791;SDS011;29527;55.766;37.570;2023-03-01T02:56:49;1.45;;;0.30;;
37791;SDS011;29527;55.766;37.570;2023-03-01T02:59:19;1.67;;;0.50;;
37791;SDS011;29527;55.766;37.570;2023-03-01T03:01:47;2.97;;;0.47;;
37791;SDS011;29527;55.766;37.570;2023-03-01T03:04:14;1.45;;;0.40;;
37791;SDS011;29527;55.766;37.570;2023-03-01T03:06:42;1.55;;;0.45;;
37791;SDS011;29527;55.766;37.570;2023-03-01T03:09:09;4.03;;;0.60;;
37791;SDS011;29527;55.766;37.570;2023-03-01T03:11:35;5.50;;;0.60;;
37791;SDS011;29527;55.766;37.570;2023-03-01T03:14:02;1.10;;;0.38;;
37791;SDS011;29527;55.766;37.570;2023-03-01T03:16:28;2.05;;;0.60;;
37791;SDS011;29527;55.766;37.570;2023-03-01T03:18:54;2.22;;;0.40;;
37791;SDS011;29527;55.766;37.570;2023-03-01T03:23:55;2.83;;;0.40;;
37791;SDS011;29527;55.766;37.570;2023-03-01T03:26:21;3.40;;;0.60;;
37791;SDS011;29527;55.766;37.570;2023-03-01T03:28:46;2.65;;;0.28;;
37791;SDS011;29527;55.766;37.570;2023-03-01T03:31:11;2.67;;;0.40;;
37791;SDS011;29527;55.766;37.570;2023-03-01T03:33:37;1.48;;;0.40;;
37791;SDS011;29527;55.766;37.570;2023-03-01T03:36:03;5.35;;;1.63;;
37791;SDS011;29527;55.766;37.570;2023-03-01T03:38:29;3.17;;;0.45;;
37791;SDS011;29527;55.766;37.570;2023-03-01T03:41:04;1.52;;;0.38;;
37791;SDS011;29527;55.766;37.570;2023-03-01T03:43:33;1.98;;;0.40;;
37791;SDS011;29527;55.766;37.570;2023-03-01T03:46:00;2.58;;;0.40;;
37791;SDS011;29527;55.766;37.570;2023-03-01T03:48:31;1.02;;;0.43;;
37791;SDS011;29527;55.766;37.570;2023-03-01T03:51:03;2.38;;;0.70;;
37791;SDS011;29527;55.766;37.570;2023-03-01T03:53:33;3.38;;;0.43;;
37791;SDS011;29527;55.766;37.570;2023-03-01T03:55:58;2.70;;;0.55;;
37791;SDS011;29527;55.766;37.570;2023-03-01T03:58:24;2.70;;;0.30;;
37791;SDS011;29527;55.766;37.570;2023-03-01T04:00:52;2.40;;;0.60;;
37791;SDS011;29527;55.766;37.570;2023-03-01T04:03:20;2.13;;;0.50;;
37791;SDS011;29527;55.766;37.570;2023-03-01T04:05:47;1.33;;;0.40;;
37791;SDS011;29527;55.766;37.570;2023-03-01T04:08:15;1.02;;;0.40;;
37791;SDS011;29527;55.766;37.570;2023-03-01T04:10:44;2.35;;;0.50;;
37791;SDS011;29527;55.766;37.570;2023-03-01T04:13:13;1.17;;;0.60;;
37791;SDS011;29527;55.766;37.570;2023-03-01T04:15:44;4.25;;;0.80;;
37791;SDS011;29527;55.766;37.570;2023-03-01T04:18:11;2.92;;;0.35;;
37791;SDS011;29527;55.766;37.570;2023-03-01T04:20:38;2.17;;;0.63;;
37791;SDS011;29527;55.766;37.570;2023-03-01T04:23:05;4.78;;;0.68;;
37791;SDS011;29527;55.766;37.570;2023-03-01T04:28:05;3.53;;;0.57;;
37791;SDS011;29527;55.766;37.570;2023-03-01T04:30:31;2.90;;;0.70;;
37791;SDS011;29527;55.766;37.570;2023-03-01T04:33:04;1.27;;;0.60;;
37791;SDS011;29527;55.766;37.570;2023-03-01T04:35:31;2.50;;;0.50;;
37791;SDS011;29527;55.766;37.570;2023-03-01T04:37:57;1.70;;;0.63;;
37791;SDS011;29527;55.766;37.570;2023-03-01T04:40:23;4.72;;;0.60;;
37791;SDS011;29527;55.766;37.570;2023-03-01T04:42:50;6.50;;;0.80;;
37791;SDS011;29527;55.766;37.570;2023-03-01T04:45:15;2.17;;;0.50;;
37791;SDS011;29527;55.766;37.570;2023-03-01T04:47:41;2.17;;;0.60;;
37791;SDS011;29527;55.766;37.570;2023-03-01T04:50:10;1.58;;;0.50;;
37791;SDS011;29527;55.766;37.570;2023-03-01T04:52:36;3.88;;;0.70;;
37791;SDS011;29527;55.766;37.570;2023-03-01T04:55:02;2.70;;;0.68;;
37791;SDS011;29527;55.766;37.570;2023-03-01T04:57:29;3.80;;;0.52;;
37791;SDS011;29527;55.766;37.570;2023-03-01T04:59:54;2.90;;;0.57;;
37791;SDS011;29527;55.766;37.570;2023-03-01T05:02:20;3.08;;;0.98;;
37791;SDS011;29527;55.766;37.570;2023-03-01T05:04:46;3.17;;;0.65;;
37791;SDS011;29527;55.766;37.570;2023-03-01T05:07:11;2.65;;;0.57;;
37791;SDS011;29527;55.766;37.570;2023-03-01T05:09:38;2.78;;;0.90;;
37791;SDS011;29527;55.766;37.570;2023-03-01T05:12:03;2.05;;;0.80;;
37791;SDS011;29527;55.766;37.570;2023-03-01T05:14:29;1.33;;;0.60;;
37791;SDS011;29527;55.766;37.570;2023-03-01T05:16:55;2.75;;;0.90;;
37791;SDS011;29527;55.766;37.570;2023-03-01T05:19:22;3.03;;;0.65;;
37791;SDS011;29527;55.766;37.570;2023-03-01T05:21:48;3.38;;;0.60;;
37791;SDS011;29527;55.766;37.570;2023-03-01T05:24:29;1.23;;;0.68;;
37791;SDS011;29527;55.766;37.570;2023-03-01T05:26:56;1.92;;;0.82;;
37791;SDS011;29527;55.766;37.570;2023-03-01T05:29:22;4.28;;;0.95;;
37791;SDS011;29527;55.766;37.570;2023-03-01T05:31:52;3.70;;;0.90;;
37791;SDS011;29527;55.766;37.570;2023-03-01T05:34:22;2.15;;;0.90;;
37791;SDS011;29527;55.766;37.570;2023-03-01T05:36:52;4.15;;;1.20;;
37791;SDS011;29527;55.766;37.570;2023-03-01T05:39:22;3.08;;;0.90;;
37791;SDS011;29527;55.766;37.570;2023-03-01T05:41:52;2.45;;;0.95;;
37791;SDS011;29527;55.766;37.570;2023-03-01T05:44:19;2.85;;;0.90;;
37791;SDS011;29527;55.766;37.570;2023-03-01T05:46:45;1.83;;;0.85;;
37791;SDS011;29527;55.766;37.570;2023-03-01T05:49:11;2.72;;;0.90;;
37791;SDS011;29527;55.766;37.570;2023-03-01T05:51:38;4.30;;;1.13;;
37791;SDS011;29527;55.766;37.570;2023-03-01T05:54:08;5.13;;;1.10;;
37791;SDS011;29527;55.766;37.570;2023-03-01T05:56:35;2.85;;;1.10;;
37791;SDS011;29527;55.766;37.570;2023-03-01T05:59:02;4.13;;;1.10;;
37791;SDS011;29527;55.766;37.570;2023-03-01T06:01:28;5.25;;;1.20;;
37791;SDS011;29527;55.766;37.570;2023-03-01T06:03:54;1.80;;;0.82;;
37791;SDS011;29527;55.766;37.570;2023-03-01T06:06:20;4.43;;;1.13;;
37791;SDS011;29527;55.766;37.570;2023-03-01T06:08:46;3.58;;;0.95;;
37791;SDS011;29527;55.766;37.570;2023-03-01T06:11:11;3.40;;;1.00;;
37791;SDS011;29527;55.766;37.570;2023-03-01T06:13:37;4.05;;;1.20;;
37791;SDS011;29527;55.766;37.570;2023-03-01T06:16:05;4.38;;;1.30;;
37791;SDS011;29527;55.766;37.570;2023-03-01T06:18:32;2.38;;;0.85;;
37791;SDS011;29527;55.766;37.570;2023-03-01T06:20:57;2.72;;;1.20;;
37791;SDS011;29527;55.766;37.570;2023-03-01T06:23:23;5.88;;;1.30;;
37791;SDS011;29527;55.766;37.570;2023-03-01T06:25:49;4.53;;;1.38;;
37791;SDS011;29527;55.766;37.570;2023-03-01T06:28:14;2.75;;;1.02;;
37791;SDS011;29527;55.766;37.570;2023-03-01T06:30:40;4.25;;;1.20;;
37791;SDS011;29527;55.766;37.570;2023-03-01T06:33:05;3.45;;;1.25;;
37791;SDS011;29527;55.766;37.570;2023-03-01T06:35:31;3.05;;;1.30;;
37791;SDS011;29527;55.766;37.570;2023-03-01T06:37:57;3.95;;;1.05;;
37791;SDS011;29527;55.766;37.570;2023-03-01T06:40:24;2.53;;;1.15;;
37791;SDS011;29527;55.766;37.570;2023-03-01T06:42:50;5.05;;;1.75;;
37791;SDS011;29527;55.766;37.570;2023-03-01T06:45:16;5.65;;;1.52;;
37791;SDS011;29527;55.766;37.570;2023-03-01T06:47:43;4.95;;;1.75;;
37791;SDS011;29527;55.766;37.570;2023-03-01T06:50:08;4.95;;;1.30;;
37791;SDS011;29527;55.766;37.570;2023-03-01T06:52:34;3.88;;;1.65;;
37791;SDS011;29527;55.766;37.570;2023-03-01T06:55:00;4.97;;;1.83;;
37791;SDS011;29527;55.766;37.570;2023-03-01T06:57:26;2.97;;;1.40;;
37791;SDS011;29527;55.766;37.570;2023-03-01T06:59:52;6.45;;;1.80;;
37791;SDS011;29527;55.766;37.570;2023-03-01T07:02:17;3.95;;;1.75;;
37791;SDS011;29527;55.766;37.570;2023-03-01T07:04:43;4.28;;;1.88;;
37791;SDS011;29527;55.766;37.570;2023-03-01T07:07:08;4.35;;;1.85;;
37791;SDS011;29527;55.766;37.570;2023-03-01T07:09:34;6.03;;;2.00;;
37791;SDS011;29527;55.766;37.570;2023-03-01T07:12:00;3.60;;;1.55;;
37791;SDS011;29527;55.766;37.570;2023-03-01T07:14:27;4.53;;;1.73;;
37791;SDS011;29527;55.766;37.570;2023-03-01T07:16:53;4.93;;;2.25;;
37791;SDS011;29527;55.766;37.570;2023-03-01T07:19:18;3.00;;;1.83;;
37791;SDS011;29527;55.766;37.570;2023-03-01T07:21:44;7.43;;;2.50;;
37791;SDS011;29527;55.766;37.570;2023-03-01T07:24:10;4.13;;;1.80;;
37791;SDS011;29527;55.766;37.570;2023-03-01T07:26:35;7.85;;;3.10;;
37791;SDS011;29527;55.766;37.570;2023-03-01T07:29:03;2.70;;;1.50;;
37791;SDS011;29527;55.766;37.570;2023-03-01T07:31:29;2.30;;;1.40;;
37791;SDS011;29527;55.766;37.570;2023-03-01T07:33:55;7.50;;;1.90;;
37791;SDS011;29527;55.766;37.570;2023-03-01T07:36:21;4.30;;;2.00;;
37791;SDS011;29527;55.766;37.570;2023-03-01T07:38:47;5.18;;;1.83;;
37791;SDS011;29527;55.766;37.570;2023-03-01T07:41:12;4.97;;;2.00;;
37791;SDS011;29527;55.766;37.570;2023-03-01T07:43:38;3.97;;;1.58;;
37791;SDS011;29527;55.766;37.570;2023-03-01T07:46:04;3.00;;;1.60;;
37791;SDS011;29527;55.766;37.570;2023-03-01T07:48:30;3.35;;;1.58;;
37791;SDS011;29527;55.766;37.570;2023-03-01T07:50:57;3.40;;;1.52;;
37791;SDS011;29527;55.766;37.570;2023-03-01T07:53:27;4.53;;;1.80;;
37791;SDS011;29527;55.766;37.570;2023-03-01T07:56:11;4.30;;;1.42;;
37791;SDS011;29527;55.766;37.570;2023-03-01T07:58:39;3.95;;;1.77;;
37791;SDS011;29527;55.766;37.570;2023-03-01T08:01:08;3.03;;;1.70;;
37791;SDS011;29527;55.766;37.570;2023-03-01T08:03:37;4.35;;;1.85;;
37791;SDS011;29527;55.766;37.570;2023-03-01T08:06:05;5.53;;;1.70;;
37791;SDS011;29527;55.766;37.570;2023-03-01T08:08:32;4.38;;;1.35;;
37791;SDS011;29527;55.766;37.570;2023-03-01T08:10:58;3.72;;;1.65;;
37791;SDS011;29527;55.766;37.570;2023-03-01T08:13:24;5.18;;;1.75;;
37791;SDS011;29527;55.766;37.570;2023-03-01T08:15:50;4.95;;;1.65;;
37791;SDS011;29527;55.766;37.570;2023-03-01T08:18:16;6.97;;;1.60;;
37791;SDS011;29527;55.766;37.570;2023-03-01T08:20:43;7.03;;;1.80;;
37791;SDS011;29527;55.766;37.570;2023-03-01T08:23:09;6.47;;;1.40;;
37791;SDS011;29527;55.766;37.570;2023-03-01T08:25:35;2.90;;;1.52;;
37791;SDS011;29527;55.766;37.570;2023-03-01T08:28:00;3.58;;;1.50;;
37791;SDS011;29527;55.766;37.570;2023-03-01T08:30:26;6.68;;;1.73;;
37791;SDS011;29527;55.766;37.570;2023-03-01T08:32:52;5.63;;;1.70;;
37791;SDS011;29527;55.766;37.570;2023-03-01T08:35:17;4.20;;;1.70;;
37791;SDS011;29527;55.766;37.570;2023-03-01T08:37:45;3.83;;;1.80;;
37791;SDS011;29527;55.766;37.570;2023-03-01T08:40:11;3.70;;;1.90;;
37791;SDS011;29527;55.766;37.570;2023-03-01T08:42:38;4.25;;;1.70;;
37791;SDS011;29527;55.766;37.570;2023-03-01T08:45:04;8.43;;;1.50;;
37791;SDS011;29527;55.766;37.570;2023-03-01T08:47:30;5.97;;;1.80;;
37791;SDS011;29527;55.766;37.570;2023-03-01T08:49:56;5.13;;;1.50;;
37791;SDS011;29527;55.766;37.570;2023-03-01T08:52:21;5.35;;;1.30;;
37791;SDS011;29527;55.766;37.570;2023-03-01T08:54:48;4.50;;;1.35;;
37791;SDS011;29527;55.766;37.570;2023-03-01T08:57:14;3.67;;;1.30;;
37791;SDS011;29527;55.766;37.570;2023-03-01T08:59:39;3.38;;;1.40;;
37791;SDS011;29527;55.766;37.570;2023-03-01T09:02:12;4.57;;;1.48;;
37791;SDS011;29527;55.766;37.570;2023-03-01T09:04:40;3.85;;;1.30;;
37791;SDS011;29527;55.766;37.570;2023-03-01T09:07:05;4.38;;;1.65;;
37791;SDS011;29527;55.766;37.570;2023-03-01T09:09:31;4.38;;;1.38;;
37791;SDS011;29527;55.766;37.570;2023-03-01T09:11:56;3.78;;;1.40;;
37791;SDS011;29527;55.766;37.570;2023-03-01T09:14:22;4.30;;;1.85;;
37791;SDS011;29527;55.766;37.570;2023-03-01T09:16:47;3.28;;;1.25;;
37791;SDS011;29527;55.766;37.570;2023-03-01T09:19:13;5.25;;;1.70;;
37791;SDS011;29527;55.766;37.570;2023-03-01T09:21:39;3.95;;;1.42;;
37791;SDS011;29527;55.766;37.570;2023-03-01T09:24:05;4.90;;;1.60;;
37791;SDS011;29527;55.766;37.570;2023-03-01T09:26:38;5.38;;;1.40;;
37791;SDS011;29527;55.766;37.570;2023-03-01T09:29:04;4.88;;;1.70;;
37791;SDS011;29527;55.766;37.570;2023-03-01T09:31:29;4.20;;;1.40;;
37791;SDS011;29527;55.766;37.570;2023-03-01T09:33:55;2.78;;;1.15;;
37791;SDS011;29527;55.766;37.570;2023-03-01T09:36:21;6.63;;;1.95;;
37791;SDS011;29527;55.766;37.570;2023-03-01T09:38:48;2.55;;;1.17;;
37791;SDS011;29527;55.766;37.570;2023-03-01T09:44:10;2.13;;;1.02;;
37791;SDS011;29527;55.766;37.570;2023-03-01T09:46:56;3.58;;;1.33;;
37791;SDS011;29527;55.766;37.570;2023-03-01T09:49:41;3.50;;;1.00;;
37791;SDS011;29527;55.766;37.570;2023-03-01T09:55:14;4.72;;;1.20;;
37791;SDS011;29527;55.766;37.570;2023-03-01T09:57:43;3.88;;;1.50;;
37791;SDS011;29527;55.766;37.570;2023-03-01T10:00:31;4.72;;;1.20;;
37791;SDS011;29527;55.766;37.570;2023-03-01T10:03:08;3.25;;;1.27;;
37791;SDS011;29527;55.766;37.570;2023-03-01T10:10:56;2.47;;;1.13;;
37791;SDS011;29527;55.766;37.570;2023-03-01T10:19:29;4.47;;;1.20;;
37791;SDS011;29527;55.766;37.570;2023-03-01T10:22:41;4.63;;;1.30;;
37791;SDS011;29527;55.766;37.570;2023-03-01T10:24:53;3.85;;;1.02;;
37791;SDS011;29527;55.766;37.570;2023-03-01T10:27:34;5.35;;;1.10;;
37791;SDS011;29527;55.766;37.570;2023-03-01T10:33:06;3.20;;;1.20;;
37791;SDS011;29527;55.766;37.570;2023-03-01T10:35:42;3.13;;;1.15;;
37791;SDS011;29527;55.766;37.570;2023-03-01T10:38:08;3.00;;;1.17;;
37791;SDS011;29527;55.766;37.570;2023-03-01T10:40:50;3.92;;;1.20;;
37791;SDS011;29527;55.766;37.570;2023-03-01T10:43:17;4.25;;;1.80;;
37791;SDS011;29527;55.766;37.570;2023-03-01T10:45:44;2.85;;;1.30;;
37791;SDS011;29527;55.766;37.570;2023-03-01T10:50:40;4.65;;;1.02;;
37791;SDS011;29527;55.766;37.570;2023-03-01T10:53:16;4.28;;;1.20;;
37791;SDS011;29527;55.766;37.570;2023-03-01T10:55:47;5.10;;;1.08;;
37791;SDS011;29527;55.766;37.570;2023-03-01T10:58:22;2.33;;;0.93;;
37791;SDS011;29527;55.766;37.570;2023-03-01T11:00:49;6.03;;;1.10;;
37791;SDS011;29527;55.766;37.570;2023-03-01T11:03:17;2.90;;;0.98;;
37791;SDS011;29527;55.766;37.570;2023-03-01T11:08:40;4.70;;;1.10;;
37791;SDS011;29527;55.766;37.570;2023-03-01T11:14:25;3.33;;;1.38;;
37791;SDS011;29527;55.766;37.570;2023-03-01T11:16:40;2.90;;;0.93;;
37791;SDS011;29527;55.766;37.570;2023-03-01T11:21:34;6.57;;;0.95;;
37791;SDS011;29527;55.766;37.570;2023-03-01T11:24:02;4.57;;;0.90;;
37791;SDS011;29527;55.766;37.570;2023-03-01T11:26:34;4.07;;;1.00;;
37791;SDS011;29527;55.766;37.570;2023-03-01T11:29:04;6.80;;;1.20;;
37791;SDS011;29527;55.766;37.570;2023-03-01T11:31:37;6.15;;;1.00;;
37791;SDS011;29527;55.766;37.570;2023-03-01T11:36:51;4.75;;;0.75;;
37791;SDS011;29527;55.766;37.570;2023-03-01T11:41:48;1.40;;;0.63;;
37791;SDS011;29527;55.766;37.570;2023-03-01T12:11:55;3.85;;;0.60;;
37791;SDS011;29527;55.766;37.570;2023-03-01T12:14:48;3.67;;;0.55;;
37791;SDS011;29527;55.766;37.570;2023-03-01T12:17:31;3.08;;;0.80;;
37791;SDS011;29527;55.766;37.570;2023-03-01T12:36:30;3.20;;;0.70;;
37791;SDS011;29527;55.766;37.570;2023-03-01T12:50:43;3.33;;;0.90;;
37791;SDS011;29527;55.766;37.570;2023-03-01T12:56:09;2.90;;;0.90;;
37791;SDS011;29527;55.766;37.570;2023-03-01T13:01:16;2.00;;;0.60;;
37791;SDS011;29527;55.766;37.570;2023-03-01T13:09:41;7.35;;;0.80;;
37791;SDS011;29527;55.766;37.570;2023-03-01T13:15:27;2.58;;;0.80;;
37791;SDS011;29527;55.766;37.570;2023-03-01T13:20:30;3.30;;;0.80;;
37791;SDS011;29527;55.766;37.570;2023-03-01T13:31:03;3.35;;;0.77;;
37791;SDS011;29527;55.766;37.570;2023-03-01T13:35:56;2.58;;;0.88;;
37791;SDS011;29527;55.766;37.570;2023-03-01T13:38:39;1.50;;;0.70;;
37791;SDS011;29527;55.766;37.570;2023-03-01T13:44:20;4.63;;;0.95;;
37791;SDS011;29527;55.766;37.570;2023-03-01T13:46:53;1.52;;;0.63;;
37791;SDS011;29527;55.766;37.570;2023-03-01T13:49:36;4.70;;;0.93;;
37791;SDS011;29527;55.766;37.570;2023-03-01T13:52:21;2.25;;;0.88;;
37791;SDS011;29527;55.766;37.570;2023-03-01T13:54:49;2.25;;;0.90;;
37791;SDS011;29527;55.766;37.570;2023-03-01T13:57:18;4.32;;;1.10;;
37791;SDS011;29527;55.766;37.570;2023-03-01T14:02:15;2.10;;;0.85;;
37791;SDS011;29527;55.766;37.570;2023-03-01T14:04:40;2.45;;;0.77;;
37791;SDS011;29527;55.766;37.570;2023-03-01T14:07:13;3.03;;;0.52;;
37791;SDS011;29527;55.766;37.570;2023-03-01T14:09:56;2.78;;;0.90;;
37791;SDS011;29527;55.766;37.570;2023-03-01T14:12:26;2.92;;;0.93;;
37791;SDS011;29527;55.766;37.570;2023-03-01T14:18:14;3.13;;;0.80;;
37791;SDS011;29527;55.766;37.570;2023-03-01T14:20:47;3.50;;;1.02;;
37791;SDS011;29527;55.766;37.570;2023-03-01T14:23:22;3.78;;;1.17;;
37791;SDS011;29527;55.766;37.570;2023-03-01T14:25:49;2.75;;;1.20;;
37791;SDS011;29527;55.766;37.570;2023-03-01T14:28:18;4.18;;;1.05;;
37791;SDS011;29527;55.766;37.570;2023-03-01T14:30:51;3.00;;;0.90;;
37791;SDS011;29527;55.766;37.570;2023-03-01T14:36:02;6.20;;;1.35;;
37791;SDS011;29527;55.766;37.570;2023-03-01T14:43:38;4.20;;;1.00;;
37791;SDS011;29527;55.766;37.570;2023-03-01T14:49:19;2.33;;;0.90;;
37791;SDS011;29527;55.766;37.570;2023-03-01T14:52:21;5.22;;;1.25;;
37791;SDS011;29527;55.766;37.570;2023-03-01T14:54:51;5.93;;;0.90;;
37791;SDS011;29527;55.766;37.570;2023-03-01T14:57:20;3.67;;;1.00;;
37791;SDS011;29527;55.766;37.570;2023-03-01T14:59:54;2.92;;;1.10;;
37791;SDS011;29527;55.766;37.570;2023-03-01T15:02:23;3.42;;;1.13;;
37791;SDS011;29527;55.766;37.570;2023-03-01T15:04:52;3.45;;;0.90;;
37791;SDS011;29527;55.766;37.570;2023-03-01T15:07:22;3.95;;;0.93;;
37791;SDS011;29527;55.766;37.570;2023-03-01T15:09:52;5.97;;;1.48;;
37791;SDS011;29527;55.766;37.570;2023-03-01T15:14:52;2.63;;;1.10;;
37791;SDS011;29527;55.766;37.570;2023-03-01T15:19:57;3.00;;;0.93;;
37791;SDS011;29527;55.766;37.570;2023-03-01T15:22:24;3.53;;;1.00;;
37791;SDS011;29527;55.766;37.570;2023-03-01T15:24:51;3.08;;;0.80;;
37791;SDS011;29527;55.766;37.570;2023-03-01T15:27:22;4.85;;;1.80;;
37791;SDS011;29527;55.766;37.570;2023-03-01T15:29:50;3.00;;;1.00;;
37791;SDS011;29527;55.766;37.570;2023-03-01T15:32:34;3.88;;;0.93;;
37791;SDS011;29527;55.766;37.570;2023-03-01T15:40:55;2.53;;;0.80;;
37791;SDS011;29527;55.766;37.570;2023-03-01T15:43:43;2.30;;;1.15;;
37791;SDS011;29527;55.766;37.570;2023-03-01T15:46:18;7.93;;;1.50;;
37791;SDS011;29527;55.766;37.570;2023-03-01T15:48:49;2.33;;;0.88;;
37791;SDS011;29527;55.766;37.570;2023-03-01T15:51:17;5.47;;;1.00;;
37791;SDS011;29527;55.766;37.570;2023-03-01T15:53:49;8.70;;;1.23;;
37791;SDS011;29527;55.766;37.570;2023-03-01T15:56:17;2.20;;;0.70;;
37791;SDS011;29527;55.766;37.570;2023-03-01T15:58:42;2.58;;;0.82;;
37791;SDS011;29527;55.766;37.570;2023-03-01T16:01:12;4.03;;;1.30;;
37791;SDS011;29527;55.766;37.570;2023-03-01T16:03:39;3.83;;;1.00;;
37791;SDS011;29527;55.766;37.570;2023-03-01T16:06:04;2.63;;;1.00;;
37791;SDS011;29527;55.766;37.570;2023-03-01T16:08:30;5.88;;;1.13;;
37791;SDS011;29527;55.766;37.570;2023-03-01T16:10:55;3.63;;;1.10;;
37791;SDS011;29527;55.766;37.570;2023-03-01T16:13:21;3.25;;;0.98;;
37791;SDS011;29527;55.766;37.570;2023-03-01T16:15:46;4.30;;;0.80;;
37791;SDS011;29527;55.766;37.570;2023-03-01T16:18:12;3.78;;;0.93;;
37791;SDS011;29527;55.766;37.570;2023-03-01T16:20:37;2.75;;;0.98;;
37791;SDS011;29527;55.766;37.570;2023-03-01T16:23:04;2.63;;;0.70;;
37791;SDS011;29527;55.766;37.570;2023-03-01T16:25:32;3.17;;;0.82;;
37791;SDS011;29527;55.766;37.570;2023-03-01T16:27:58;2.05;;;0.80;;
37791;SDS011;29527;55.766;37.570;2023-03-01T16:30:26;3.53;;;0.75;;
37791;SDS011;29527;55.766;37.570;2023-03-01T16:32:51;2.42;;;0.95;;
37791;SDS011;29527;55.766;37.570;2023-03-01T16:35:18;1.90;;;0.85;;
37791;SDS011;29527;55.766;37.570;2023-03-01T16:37:45;4.07;;;0.90;;
37791;SDS011;29527;55.766;37.570;2023-03-01T16:40:21;4.15;;;0.90;;
37791;SDS011;29527;55.766;37.570;2023-03-01T16:42:51;1.85;;;0.82;;
37791;SDS011;29527;55.766;37.570;2023-03-01T16:45:18;3.13;;;1.10;;
37791;SDS011;29527;55.766;37.570;2023-03-01T16:47:44;2.85;;;0.98;;
37791;SDS011;29527;55.766;37.570;2023-03-01T16:50:10;2.70;;;0.90;;
37791;SDS011;29527;55.766;37.570;2023-03-01T16:52:36;3.03;;;1.08;;
37791;SDS011;29527;55.766;37.570;2023-03-01T16:55:03;4.43;;;0.88;;
37791;SDS011;29527;55.766;37.570;2023-03-01T16:57:30;5.15;;;1.08;;
37791;SDS011;29527;55.766;37.570;2023-03-01T16:59:56;6.35;;;1.10;;
37791;SDS011;29527;55.766;37.570;2023-03-01T17:02:21;3.75;;;0.90;;
37791;SDS011;29527;55.766;37.570;2023-03-01T17:04:54;2.60;;;0.95;;
37791;SDS011;29527;55.766;37.570;2023-03-01T17:07:20;2.55;;;0.85;;
37791;SDS011;29527;55.766;37.570;2023-03-01T17:09:47;4.70;;;1.20;;
37791;SDS011;29527;55.766;37.570;2023-03-01T17:12:13;2.28;;;0.82;;
37791;SDS011;29527;55.766;37.570;2023-03-01T17:14:39;5.28;;;1.20;;
37791;SDS011;29527;55.766;37.570;2023-03-01T17:17:09;4.35;;;1.10;;
37791;SDS011;29527;55.766;37.570;2023-03-01T17:19:36;1.92;;;0.90;;
37791;SDS011;29527;55.766;37.570;2023-03-01T17:22:07;6.82;;;1.15;;
37791;SDS011;29527;55.766;37.570;2023-03-01T17:24:36;3.08;;;0.80;;
37791;SDS011;29527;55.766;37.570;2023-03-01T17:27:02;4.60;;;1.08;;
37791;SDS011;29527;55.766;37.570;2023-03-01T17:29:28;3.28;;;1.13;;
37791;SDS011;29527;55.766;37.570;2023-03-01T17:31:54;2.30;;;0.80;;